Time;durP1;ratioP1;P1;durP2;ratioP2;P2;SDS_P1;SDS_P2;PMS_P1;PMS_P2;Temp;Humidity;BMP_temperature;BMP_pressure;BME280_temperature;BME280_humidity;BME280_pressure;Samples;Min_cycle;Max_cycle;Signal;HPM_P1;HPM_P2
2023/08/08 00:00:21;;;;;;;14.95;10.20;;;;;;;22.02;54.16;101506.25;5043183;28;20060;-36
2023/08/08 00:02:47;;;;;;;14.40;8.98;;;;;;;22.03;54.02;101515.19;5041506;28;20045;-36
2023/08/08 00:05:14;;;;;;;14.90;9.43;;;;;;;22.02;54.13;101508.94;5043308;28;20451;-36
2023/08/08 00:07:41;;;;;;;15.25;9.65;;;;;;;22.02;54.21;101508.94;5051123;28;20399;-36
2023/08/08 00:10:08;;;;;;;13.65;9.05;;;;;;;22.02;54.12;101506.25;5047773;28;20045;-35
2023/08/08 00:12:35;;;;;;;15.85;8.98;;;;;;;22.02;54.05;101514.34;5045658;28;20103;-36
2023/08/08 00:15:02;;;;;;;14.15;9.77;;;;;;;22.03;54.18;101504.38;5047753;28;20041;-35
2023/08/08 00:17:28;;;;;;;15.68;9.40;;;;;;;22.03;54.35;101505.25;5047012;28;20124;-36
2023/08/08 00:19:55;;;;;;;15.80;9.40;;;;;;;22.03;54.27;101498.97;5043331;28;20381;-36
2023/08/08 00:22:22;;;;;;;13.82;9.27;;;;;;;22.01;54.02;101507.25;5041442;28;20041;-36
2023/08/08 00:24:48;;;;;;;13.57;9.15;;;;;;;22.02;54.10;101505.41;5047427;28;20532;-35
2023/08/08 00:27:15;;;;;;;14.10;8.75;;;;;;;22.01;54.72;101507.25;5044008;28;20056;-36
2023/08/08 00:29:41;;;;;;;15.50;9.57;;;;;;;22.01;54.18;101506.41;5046551;28;20102;-35
2023/08/08 00:32:08;;;;;;;17.33;9.10;;;;;;;22.01;54.48;101501.03;5040801;28;20049;-35
2023/08/08 00:34:34;;;;;;;14.85;8.38;;;;;;;22.00;53.92;101500.19;5039181;28;20049;-36
2023/08/08 00:37:01;;;;;;;14.30;8.95;;;;;;;22.00;54.49;101493.94;5040413;28;20045;-36
2023/08/08 00:39:28;;;;;;;15.23;9.38;;;;;;;22.00;54.74;101485.84;5044822;28;20057;-36
2023/08/08 00:41:54;;;;;;;12.82;8.65;;;;;;;22.00;54.34;101489.38;5041321;28;20456;-36
2023/08/08 00:44:21;;;;;;;12.63;8.98;;;;;;;21.99;54.05;101482.28;5042487;28;20037;-35
2023/08/08 00:46:48;;;;;;;14.73;9.52;;;;;;;21.99;54.48;101493.09;5042112;28;20103;-35
2023/08/08 00:49:15;;;;;;;14.48;8.70;;;;;;;21.99;54.56;101495.78;5039088;28;20049;-35
2023/08/08 00:51:42;;;;;;;13.35;8.82;;;;;;;21.98;54.46;101493.25;5039376;28;20045;-36
2023/08/08 00:54:09;;;;;;;12.65;8.40;;;;;;;21.99;54.60;101497.63;5034596;28;20171;-36
2023/08/08 00:56:36;;;;;;;12.65;8.60;;;;;;;21.98;54.54;101490.53;5043924;28;20052;-35
2023/08/08 00:59:03;;;;;;;11.90;8.05;;;;;;;21.98;54.45;101485.97;5041819;28;20077;-36
2023/08/08 01:01:30;;;;;;;11.68;8.27;;;;;;;21.98;54.63;101487.84;5040496;28;20076;-36
2023/08/08 01:03:58;;;;;;;11.88;7.63;;;;;;;21.97;54.56;101487.00;5042086;28;20380;-35
2023/08/08 01:07:09;;;;;;;12.88;8.43;;;;;;;21.94;54.70;101487.31;5038686;28;20128;-35
2023/08/08 01:09:43;;;;;;;11.48;7.00;;;;;;;21.97;54.54;101483.47;5043991;28;20092;-35
2023/08/08 01:12:11;;;;;;;;;;;;;;;21.94;54.70;101487.31;5042008;28;20449;-35
2023/08/08 01:14:39;;;;;;;12.13;7.88;;;;;;;21.96;54.51;101485.31;5041766;28;19924;-36
2023/08/08 01:17:06;;;;;;;13.38;8.20;;;;;;;21.94;54.58;101488.16;5041056;28;20508;-36
2023/08/08 01:19:34;;;;;;;10.52;7.63;;;;;;;21.93;54.45;101480.25;5041188;28;20053;-36
2023/08/08 01:22:14;;;;;;;13.05;8.02;;;;;;;21.92;54.63;101481.25;5040370;28;20054;-36
2023/08/08 01:24:41;;;;;;;10.93;7.40;;;;;;;21.93;54.52;101482.94;5040273;28;20433;-36
2023/08/08 01:27:07;;;;;;;11.95;7.80;;;;;;;21.92;54.82;101483.97;5037027;28;20357;-36
2023/08/08 01:29:34;;;;;;;10.85;7.18;;;;;;;21.91;54.82;101480.41;5043613;28;20049;-36
2023/08/08 01:32:01;;;;;;;12.20;8.20;;;;;;;21.91;54.59;101476.88;5041837;28;20106;-36
2023/08/08 01:34:28;;;;;;;11.95;7.93;;;;;;;21.91;54.82;101482.28;5039654;28;20045;-35
2023/08/08 01:37:04;;;;;;;10.93;6.80;;;;;;;21.90;54.75;101477.88;5041329;28;20110;-36
2023/08/08 01:39:32;;;;;;;11.38;7.47;;;;;;;21.91;54.64;101474.19;5041179;28;20339;-35
2023/08/08 01:42:00;;;;;;;12.75;7.57;;;;;;;21.90;54.81;101481.41;5040781;28;20063;-35
2023/08/08 01:44:28;;;;;;;11.75;7.63;;;;;;;21.90;54.86;101481.41;5042645;28;20105;-36
2023/08/08 01:46:55;;;;;;;11.32;7.65;;;;;;;21.89;55.00;101482.41;5040876;28;20060;-35
2023/08/08 01:49:21;;;;;;;9.55;6.68;;;;;;;21.89;54.77;101482.41;5043455;28;20051;-35
2023/08/08 01:51:48;;;;;;;11.63;7.03;;;;;;;21.88;54.63;101475.34;5044227;28;20444;-35
2023/08/08 01:54:15;;;;;;;10.43;7.25;;;;;;;21.87;54.83;101462.84;5046546;28;20046;-36
2023/08/08 01:56:41;;;;;;;10.98;6.90;;;;;;;21.88;54.82;101466.41;5043292;28;20102;-36
2023/08/08 01:59:08;;;;;;;10.00;6.80;;;;;;;21.86;54.98;101463.84;5045213;28;20406;-36
2023/08/08 02:01:34;;;;;;;9.82;6.90;;;;;;;21.87;nan;101459.28;5038703;28;20137;-36
2023/08/08 02:04:01;;;;;;;10.90;7.00;;;;;;;21.88;55.13;101461.00;5043781;28;20052;-35
2023/08/08 02:06:28;;;;;;;11.02;7.38;;;;;;;21.86;55.12;101454.91;5041779;28;20128;-35
2023/08/08 02:08:54;;;;;;;10.43;7.13;;;;;;;21.85;54.80;101459.47;5045689;28;20057;-35
2023/08/08 02:11:21;;;;;;;10.70;6.65;;;;;;;21.85;54.58;101453.22;5045844;28;20049;-35
2023/08/08 02:13:48;;;;;;;10.63;6.75;;;;;;;21.85;55.14;101455.94;5043344;28;20110;-35
2023/08/08 02:16:15;;;;;;;9.73;6.65;;;;;;;21.84;55.13;101457.78;5039255;28;20133;-35
2023/08/08 02:18:41;;;;;;;8.77;6.55;;;;;;;21.84;55.12;101454.25;5037296;28;20051;-35
2023/08/08 02:21:08;;;;;;;10.48;6.20;;;;;;;21.84;55.02;101447.00;5044433;28;20114;-36
2023/08/08 02:23:35;;;;;;;10.32;7.15;;;;;;;21.83;54.93;101448.00;5047644;28;20245;-35
2023/08/08 02:26:01;;;;;;;11.45;7.20;;;;;;;21.83;54.78;101444.44;5044676;28;20375;-36
2023/08/08 02:28:28;;;;;;;9.68;5.78;;;;;;;21.83;54.81;101436.34;5044626;28;20383;-36
2023/08/08 02:30:55;;;;;;;9.57;6.20;;;;;;;21.84;54.97;101446.16;5042923;28;20128;-36
2023/08/08 02:33:21;;;;;;;13.02;6.28;;;;;;;21.82;55.24;101440.88;5040278;28;20049;-45
2023/08/08 02:35:48;;;;;;;9.20;6.35;;;;;;;21.81;55.07;101446.47;5042068;28;20048;-35
2023/08/08 02:38:15;;;;;;;9.68;6.00;;;;;;;21.81;55.06;101447.31;5039655;28;20468;-36
2023/08/08 02:40:41;;;;;;;8.73;6.13;;;;;;;21.81;54.96;101452.69;5049070;28;20128;-35
2023/08/08 02:43:09;;;;;;;7.85;5.57;;;;;;;21.82;55.21;101448.16;5045180;28;20474;-35
2023/08/08 02:45:35;;;;;;;9.57;5.60;;;;;;;21.81;54.80;101451.88;5046190;28;20479;-36
2023/08/08 02:48:02;;;;;;;9.27;6.13;;;;;;;21.80;55.11;101439.38;5040858;28;20053;-35
2023/08/08 02:50:29;;;;;;;8.02;5.40;;;;;;;21.80;54.95;101439.38;5041992;28;20053;-35
2023/08/08 02:52:57;;;;;;;8.80;5.47;;;;;;;21.79;54.95;101437.69;5041731;28;20552;-36
2023/08/08 02:55:23;;;;;;;7.55;5.28;;;;;;;21.79;55.17;101437.69;5040597;28;20144;-36
2023/08/08 02:57:50;;;;;;;9.07;6.03;;;;;;;21.79;55.19;101443.94;5042446;28;20135;-35
2023/08/08 03:00:17;;;;;;;7.28;5.07;;;;;;;21.78;55.28;101442.22;5039879;28;20049;-36
2023/08/08 03:02:43;;;;;;;7.95;5.50;;;;;;;21.78;55.12;101444.09;5043278;28;20068;-36
2023/08/08 03:05:10;;;;;;;9.23;5.80;;;;;;;21.77;55.31;101434.31;5047219;28;20102;-36
2023/08/08 03:07:37;;;;;;;8.70;5.45;;;;;;;21.76;55.07;101433.47;5044608;28;20088;-36
2023/08/08 03:10:04;;;;;;;6.63;4.82;;;;;;;21.76;55.21;101430.78;5038994;28;20103;-36
2023/08/08 03:12:31;;;;;;;8.95;5.30;;;;;;;21.76;55.20;101435.31;5038727;28;20433;-35
2023/08/08 03:14:58;;;;;;;7.10;4.68;;;;;;;21.76;55.25;101435.31;5040383;28;20081;-35
2023/08/08 03:17:24;;;;;;;9.32;5.18;;;;;;;21.76;55.15;101438.03;5044990;28;20306;-35
2023/08/08 03:19:51;;;;;;;6.82;4.40;;;;;;;21.75;55.22;101434.50;5045142;28;20131;-35
2023/08/08 03:22:17;;;;;;;8.93;5.50;;;;;;;21.75;55.46;101429.09;5033325;28;20056;-35
2023/08/08 03:24:44;;;;;;;7.72;4.97;;;;;;;21.75;55.35;101425.53;5047157;28;20049;-35
2023/08/08 03:27:11;;;;;;;6.88;4.60;;;;;;;21.75;55.21;101420.13;5042845;28;20061;-35
2023/08/08 03:29:37;;;;;;;9.32;5.32;;;;;;;21.73;55.13;101416.75;5044664;28;20045;-36
2023/08/08 03:32:04;;;;;;;5.65;4.05;;;;;;;21.73;55.03;101419.47;5047241;28;20132;-36
2023/08/08 03:34:31;;;;;;;8.10;4.82;;;;;;;21.72;55.56;101417.78;5045172;28;20098;-36
2023/08/08 03:36:59;;;;;;;7.13;4.75;;;;;;;21.72;55.22;101415.06;5040983;28;20106;-36
2023/08/08 03:39:26;;;;;;;6.90;4.55;;;;;;;21.71;55.09;101419.63;5043368;28;20047;-35
2023/08/08 03:41:53;;;;;;;7.78;4.80;;;;;;;21.70;55.35;101423.31;5044249;28;20063;-36
2023/08/08 03:44:19;;;;;;;6.60;4.32;;;;;;;21.69;55.48;101422.47;5043691;28;20045;-36
2023/08/08 03:46:47;;;;;;;6.03;4.30;;;;;;;21.69;55.41;101417.09;5044468;28;20136;-36
2023/08/08 03:49:13;;;;;;;8.05;4.80;;;;;;;21.69;55.45;101422.47;5043532;28;20053;-35
2023/08/08 03:51:40;;;;;;;6.65;4.40;;;;;;;21.68;55.39;101426.19;5041542;28;20069;-35
2023/08/08 03:54:06;;;;;;;7.85;4.45;;;;;;;21.68;55.41;101415.41;5043280;28;20439;-35
2023/08/08 03:56:33;;;;;;;6.20;4.05;;;;;;;21.68;55.49;101417.25;5041698;28;20056;-35
2023/08/08 03:59:00;;;;;;;5.40;3.67;;;;;;;21.68;55.51;101414.56;5044679;28;20106;-35
2023/08/08 04:01:26;;;;;;;8.25;3.53;;;;;;;21.67;55.38;101411.03;5043214;28;20132;-35
2023/08/08 04:03:53;;;;;;;7.18;4.38;;;;;;;21.66;55.56;101409.31;5043807;28;20052;-35
2023/08/08 04:06:19;;;;;;;7.25;4.15;;;;;;;21.66;55.87;101403.91;5038592;28;20516;-36
2023/08/08 04:08:46;;;;;;;8.27;3.75;;;;;;;21.67;55.66;101402.94;5036339;28;20042;-36
2023/08/08 04:11:12;;;;;;;6.03;4.18;;;;;;;21.65;55.85;101404.09;5044113;28;20106;-35
2023/08/08 04:13:39;;;;;;;5.82;3.38;;;;;;;21.65;55.88;101398.69;5042879;28;20042;-36
2023/08/08 04:16:06;;;;;;;6.03;3.78;;;;;;;21.64;55.66;101403.25;5043812;28;20359;-35
2023/08/08 04:18:32;;;;;;;4.50;3.40;;;;;;;21.63;55.93;101401.56;5039422;28;20438;-35
2023/08/08 04:21:00;;;;;;;5.25;3.33;;;;;;;21.62;55.76;101399.84;5037750;28;20559;-35
2023/08/08 04:23:27;;;;;;;7.43;4.13;;;;;;;21.63;55.81;101395.31;5046847;28;20084;-35
2023/08/08 04:25:53;;;;;;;5.05;3.20;;;;;;;21.62;55.63;101399.84;5045533;28;20103;-35
2023/08/08 04:28:20;;;;;;;5.50;3.20;;;;;;;21.61;55.72;101400.03;5046512;28;20182;-36
2023/08/08 04:30:47;;;;;;;5.18;3.55;;;;;;;21.61;55.67;101408.13;5042185;28;20518;-36
2023/08/08 04:33:13;;;;;;;5.28;3.30;;;;;;;21.60;55.55;101401.03;5042971;28;20045;-36
2023/08/08 04:35:40;;;;;;;5.93;3.50;;;;;;;21.59;55.96;101394.81;5044360;28;20106;-35
2023/08/08 04:38:06;;;;;;;5.38;3.53;;;;;;;21.59;55.52;101392.09;5041827;28;20052;-35
2023/08/08 04:40:33;;;;;;;6.75;3.70;;;;;;;21.58;55.28;101395.78;5044112;28;20083;-35
2023/08/08 04:43:01;;;;;;;6.57;3.03;;;;;;;21.59;55.49;101405.59;5042274;28;20067;-35
2023/08/08 04:45:29;;;;;;;6.13;3.38;;;;;;;21.58;55.51;101403.03;5045451;28;20118;-35
2023/08/08 04:47:55;;;;;;;4.75;3.35;;;;;;;21.58;55.69;101409.28;5044172;28;20044;-35
2023/08/08 04:50:22;;;;;;;5.20;3.30;;;;;;;21.58;55.61;101411.97;5045386;28;20055;-36
2023/08/08 04:52:49;;;;;;;5.40;3.30;;;;;;;21.57;55.45;101404.91;5047115;28;20084;-35
2023/08/08 04:55:15;;;;;;;6.03;3.30;;;;;;;21.58;55.17;101413.84;5048235;28;20486;-35
2023/08/08 04:57:42;;;;;;;5.65;3.53;;;;;;;21.58;55.39;101413.84;5051007;28;20045;-35
2023/08/08 05:00:09;;;;;;;7.97;3.67;;;;;;;21.58;55.46;101409.28;5048046;28;20080;-36
2023/08/08 05:02:36;;;;;;;6.97;4.05;;;;;;;21.59;55.40;101407.47;5046099;28;20427;-36
2023/08/08 05:05:03;;;;;;;5.40;3.33;;;;;;;21.61;55.32;101408.13;5051028;28;20053;-35
2023/08/08 05:07:30;;;;;;;5.43;3.63;;;;;;;21.61;55.60;101408.97;5037120;28;20041;-36
2023/08/08 05:09:56;;;;;;;5.60;3.75;;;;;;;21.62;55.60;101405.25;5049207;28;20486;-35
2023/08/08 05:12:23;;;;;;;4.50;3.38;;;;;;;21.64;55.24;101407.81;5046922;28;20110;-35
2023/08/08 05:14:51;;;;;;;6.00;3.67;;;;;;;21.65;55.34;101406.78;5044386;28;20340;-36
2023/08/08 05:17:18;;;;;;;6.80;3.85;;;;;;;21.66;55.69;101413.84;5042535;28;20750;-35
2023/08/08 05:19:45;;;;;;;6.15;4.03;;;;;;;21.67;55.46;101413.72;5041635;28;20076;-35
2023/08/08 05:22:11;;;;;;;5.60;3.25;;;;;;;21.69;55.41;101413.53;5047461;28;20053;-35
2023/08/08 05:24:38;;;;;;;6.07;3.35;;;;;;;21.69;55.49;101400.88;5048550;28;20045;-36
2023/08/08 05:27:05;;;;;;;5.90;3.80;;;;;;;21.71;55.44;101402.56;5045006;28;20081;-36
2023/08/08 05:29:31;;;;;;;6.82;3.85;;;;;;;21.72;55.27;101401.59;5046423;28;20396;-35
2023/08/08 05:31:58;;;;;;;6.45;4.22;;;;;;;21.74;55.16;101407.66;5042717;28;20115;-36
2023/08/08 05:34:25;;;;;;;6.97;4.22;;;;;;;21.76;55.24;101408.34;5042772;28;20053;-35
2023/08/08 05:36:52;;;;;;;5.43;3.60;;;;;;;21.77;55.15;101407.31;5037865;28;20052;-36
2023/08/08 05:39:38;;;;;;;6.05;4.07;;;;;;;21.80;54.95;101412.41;5044148;28;20052;-36
2023/08/08 05:42:05;;;;;;;7.13;4.22;;;;;;;21.81;55.09;101409.53;5042657;28;20088;-35
2023/08/08 05:44:32;;;;;;;6.00;4.00;;;;;;;21.82;55.00;101408.50;5044780;28;20475;-36
2023/08/08 05:46:59;;;;;;;8.60;5.93;;;;;;;21.84;55.20;101414.59;5040442;28;20136;-35
2023/08/08 05:49:26;;;;;;;11.02;5.53;;;;;;;21.85;55.22;101416.28;5046102;28;20072;-36
2023/08/08 05:51:52;;;;;;;8.52;4.70;;;;;;;21.85;55.28;101413.59;5040039;28;20494;-36
2023/08/08 05:54:19;;;;;;;13.95;6.30;;;;;;;21.88;55.13;101415.13;5044259;28;20144;-35
2023/08/08 05:56:46;;;;;;;15.18;7.05;;;;;;;21.89;54.98;101419.50;5039430;28;20059;-36
2023/08/08 05:59:12;;;;;;;13.88;6.90;;;;;;;21.88;55.24;101418.66;5041545;28;20102;-35
2023/08/08 06:01:39;;;;;;;17.13;7.30;;;;;;;21.88;55.02;101423.22;5043387;28;20045;-36
2023/08/08 06:04:05;;;;;;;20.45;9.00;;;;;;;21.88;55.13;101432.16;5038997;28;20052;-36
2023/08/08 06:06:32;;;;;;;16.23;7.95;;;;;;;21.86;55.30;101423.38;5036330;28;20107;-36
2023/08/08 06:08:59;;;;;;;16.90;8.02;;;;;;;21.88;55.34;101425.91;5040510;28;20139;-36
2023/08/08 06:11:25;;;;;;;22.92;9.30;;;;;;;21.87;55.43;101425.06;5043887;28;20067;-36
2023/08/08 06:13:52;;;;;;;15.13;8.00;;;;;;;21.88;55.27;101428.63;5040494;28;20053;-36
2023/08/08 06:16:18;;;;;;;13.05;7.32;;;;;;;21.88;55.04;101431.31;5043546;28;20153;-36
2023/08/08 06:18:45;;;;;;;15.27;7.50;;;;;;;21.89;55.27;101427.59;5045246;28;20136;-36
2023/08/08 06:21:12;;;;;;;14.38;7.03;;;;;;;21.89;54.96;101433.00;5033331;28;20133;-36
2023/08/08 06:23:38;;;;;;;17.70;6.93;;;;;;;21.88;54.82;101431.31;5040498;28;20045;-36
2023/08/08 06:26:05;;;;;;;18.70;6.60;;;;;;;21.88;55.04;101432.16;5036702;28;20453;-35
2023/08/08 06:28:32;;;;;;;14.95;6.80;;;;;;;21.89;54.80;101431.13;5040326;28;20953;-36
2023/08/08 06:30:59;;;;;;;14.55;6.63;;;;;;;21.90;54.83;101431.97;5041616;28;20084;-36
2023/08/08 06:33:25;;;;;;;15.95;7.18;;;;;;;21.90;54.67;101424.72;5044232;28;20045;-35
2023/08/08 06:35:52;;;;;;;19.00;6.35;;;;;;;21.90;54.76;101431.97;5043460;28;20459;-35
2023/08/08 06:38:18;;;;;;;9.15;5.88;;;;;;;21.91;54.74;101444.50;5037277;28;20140;-36
2023/08/08 06:40:45;;;;;;;15.30;6.30;;;;;;;21.90;54.61;101435.53;5040447;28;20156;-36
2023/08/08 06:43:12;;;;;;;12.80;6.25;;;;;;;21.90;54.63;101443.63;5037343;28;20052;-36
2023/08/08 06:45:39;;;;;;;12.48;5.60;;;;;;;21.91;54.44;101425.59;5047522;28;20132;-35
2023/08/08 06:48:05;;;;;;;16.98;6.45;;;;;;;21.90;54.29;101440.91;5041289;28;20052;-35
2023/08/08 06:50:32;;;;;;;14.57;6.07;;;;;;;21.91;54.25;101433.69;5041412;28;20428;-36
2023/08/08 06:52:59;;;;;;;11.93;6.70;;;;;;;21.90;54.54;101434.69;5043401;28;20360;-36
2023/08/08 06:55:26;;;;;;;14.00;5.55;;;;;;;21.90;54.36;101445.47;5043889;28;20061;-36
2023/08/08 06:57:53;;;;;;;8.82;5.40;;;;;;;21.90;54.33;101440.06;5043053;28;20048;-36
2023/08/08 07:00:19;;;;;;;9.15;4.95;;;;;;;21.89;54.38;101433.84;5043658;28;20110;-36
2023/08/08 07:02:46;;;;;;;16.60;5.18;;;;;;;21.90;54.58;101440.06;5040417;28;20049;-36
2023/08/08 07:05:13;;;;;;;10.32;4.38;;;;;;;21.90;54.54;101442.78;5044147;28;20041;-36
2023/08/08 07:07:39;;;;;;;12.18;5.05;;;;;;;21.90;54.40;101431.97;5042887;28;20349;-35
2023/08/08 07:10:06;;;;;;;10.63;4.63;;;;;;;21.90;54.29;101446.31;5042041;28;20757;-36
2023/08/08 07:12:33;;;;;;;11.93;4.88;;;;;;;21.89;54.25;101439.22;5046072;28;20127;-36
2023/08/08 07:15:00;;;;;;;9.20;4.32;;;;;;;21.91;54.50;101441.78;5043469;28;20052;-38
2023/08/08 07:17:26;;;;;;;10.80;4.93;;;;;;;21.91;54.37;101444.50;5046858;28;20139;-35
2023/08/08 07:19:53;;;;;;;7.80;4.63;;;;;;;21.92;54.31;101443.47;5045339;28;20052;-36
2023/08/08 07:22:20;;;;;;;8.18;4.57;;;;;;;21.91;54.18;101448.03;5047096;28;20653;-36
2023/08/08 07:24:47;;;;;;;9.30;3.88;;;;;;;21.93;54.23;101437.06;5043797;28;20157;-36
2023/08/08 07:27:13;;;;;;;10.48;4.07;;;;;;;21.91;54.19;101434.53;5051336;28;20049;-36
2023/08/08 07:29:40;;;;;;;9.80;3.55;;;;;;;21.92;54.39;101438.91;5047569;28;20098;-36
2023/08/08 07:32:07;;;;;;;9.27;4.13;;;;;;;21.92;54.13;101430.81;5045469;28;20060;-35
2023/08/08 07:34:33;;;;;;;6.78;3.33;;;;;;;21.92;54.07;101430.81;5047834;28;20132;-36
2023/08/08 07:37:00;;;;;;;7.90;3.65;;;;;;;21.93;54.18;101424.41;5047646;28;20142;-36
2023/08/08 07:39:27;;;;;;;8.95;3.55;;;;;;;21.94;53.92;101417.97;5045369;28;20049;-36
2023/08/08 07:41:54;;;;;;;7.45;3.58;;;;;;;21.94;53.93;101425.25;5041612;28;20087;-36
2023/08/08 07:44:21;;;;;;;5.65;3.00;;;;;;;21.96;53.88;101422.41;5046274;28;20123;-36
2023/08/08 07:46:47;;;;;;;6.13;3.05;;;;;;;21.96;53.94;101417.84;5051690;28;20049;-35
2023/08/08 07:49:14;;;;;;;5.20;2.80;;;;;;;21.96;54.01;101415.13;5048014;28;20107;-36
2023/08/08 07:51:41;;;;;;;6.78;2.55;;;;;;;21.97;53.82;101419.50;5047223;28;20049;-35
2023/08/08 07:54:08;;;;;;;5.10;2.72;;;;;;;21.98;53.81;101415.81;5041589;28;20057;-36
2023/08/08 07:56:36;;;;;;;5.50;2.47;;;;;;;21.99;53.66;101422.03;5048847;28;20072;-35
2023/08/08 07:59:03;;;;;;;5.97;2.90;;;;;;;21.99;53.53;101409.41;5043213;28;20045;-36
2023/08/08 08:01:30;;;;;;;7.38;2.70;;;;;;;22.00;53.76;101421.91;5041453;28;20061;-35
2023/08/08 08:03:56;;;;;;;4.20;2.30;;;;;;;22.00;53.52;101411.09;5043113;28;20322;-36
2023/08/08 08:06:23;;;;;;;4.40;2.20;;;;;;;22.01;53.34;101415.47;5044637;28;20040;-36
2023/08/08 08:08:50;;;;;;;5.20;2.13;;;;;;;22.03;53.33;101420.69;5043911;28;20137;-36
2023/08/08 08:11:16;;;;;;;4.50;1.98;;;;;;;22.04;53.44;101414.31;5046646;28;20049;-36
2023/08/08 08:13:43;;;;;;;5.75;2.50;;;;;;;22.05;53.27;101416.00;5042559;28;20042;-36
2023/08/08 08:16:10;;;;;;;4.50;2.08;;;;;;;22.05;53.56;101416.84;5043929;28;20076;-36
2023/08/08 08:18:36;;;;;;;4.32;1.90;;;;;;;22.07;53.37;101413.94;5041579;28;20328;-35
2023/08/08 08:21:04;;;;;;;5.22;1.98;;;;;;;22.07;53.14;101422.94;5045388;28;20077;-35
2023/08/08 08:23:32;;;;;;;4.05;1.77;;;;;;;22.09;53.14;101428.16;5046275;28;20057;-36
2023/08/08 08:25:59;;;;;;;5.72;1.98;;;;;;;22.10;53.35;101429.81;5049018;28;20148;-36
2023/08/08 08:28:26;;;;;;;3.15;1.50;;;;;;;22.11;53.19;101424.28;5046866;28;20049;-36
2023/08/08 08:30:53;;;;;;;3.15;1.80;;;;;;;22.13;53.13;101424.13;5043122;28;20049;-36
2023/08/08 08:33:20;;;;;;;3.88;1.38;;;;;;;22.13;52.91;101422.28;5042227;28;20075;-36
2023/08/08 08:35:46;;;;;;;3.03;1.55;;;;;;;22.14;53.13;101423.13;5043269;28;20585;-35
2023/08/08 08:38:13;;;;;;;5.38;1.45;;;;;;;22.14;52.89;101429.34;5042976;28;20433;-35
2023/08/08 08:40:41;;;;;;;3.92;1.70;;;;;;;22.15;52.75;101419.41;5045539;28;20089;-35
2023/08/08 08:43:09;;;;;;;2.60;1.23;;;;;;;22.16;53.04;101418.41;5044729;28;20649;-35
2023/08/08 08:45:40;;;;;;;2.90;1.60;;;;;;;22.15;52.72;101428.38;5045283;28;20045;-35
2023/08/08 08:48:11;;;;;;;3.53;1.25;;;;;;;22.15;52.93;101436.47;5043261;28;20049;-36
2023/08/08 08:50:39;;;;;;;5.22;1.77;;;;;;;22.16;52.78;101423.81;5041879;28;20052;-36
2023/08/08 08:53:07;;;;;;;3.30;1.33;;;;;;;22.17;52.72;101428.19;5042771;28;20053;-35
2023/08/08 08:55:33;;;;;;;3.45;1.17;;;;;;;22.17;52.75;101426.34;5042846;28;20162;-36
2023/08/08 08:58:01;;;;;;;4.75;1.15;;;;;;;22.18;52.55;101430.72;5036668;28;20048;-36
2023/08/08 09:00:29;;;;;;;2.58;1.27;;;;;;;22.18;52.38;101435.28;5043813;28;20041;-36
2023/08/08 09:02:56;;;;;;;2.42;1.42;;;;;;;22.19;52.68;101439.66;5046677;28;20053;-35
2023/08/08 09:05:25;;;;;;;3.88;1.27;;;;;;;22.19;52.67;101434.25;5041235;28;20040;-36
2023/08/08 09:07:52;;;;;;;1.55;0.90;;;;;;;22.22;52.65;101422.28;5039818;28;20215;-35
2023/08/08 09:10:19;;;;;;;3.13;1.15;;;;;;;22.23;52.51;101442.88;5049091;28;20547;-35
2023/08/08 09:12:46;;;;;;;3.30;1.20;;;;;;;22.23;52.67;101432.94;5049837;28;20067;-35
2023/08/08 09:15:13;;;;;;;2.90;1.30;;;;;;;22.23;52.70;101435.63;5050247;28;20053;-36
2023/08/08 09:17:44;;;;;;;3.53;1.25;;;;;;;22.25;52.59;101438.16;5043740;28;20458;-36
2023/08/08 09:20:16;;;;;;;3.13;1.05;;;;;;;22.25;52.46;101440.84;5047364;28;20041;-36
2023/08/08 09:22:43;;;;;;;1.55;0.98;;;;;;;22.26;52.27;101435.28;5046798;28;20053;-36
2023/08/08 09:25:10;;;;;;;2.58;1.20;;;;;;;22.27;52.40;101438.81;5047360;28;20516;-36
2023/08/08 09:27:36;;;;;;;3.05;1.20;;;;;;;22.28;52.40;101435.13;5040970;28;20044;-35
2023/08/08 09:30:04;;;;;;;2.83;1.10;;;;;;;22.29;52.11;101440.34;5046294;28;20044;-36
2023/08/08 09:32:31;;;;;;;2.25;1.08;;;;;;;22.31;52.41;101441.03;5049737;28;20571;-36
2023/08/08 09:34:59;;;;;;;2.53;1.05;;;;;;;22.33;52.23;101449.81;5042633;28;20049;-36
2023/08/08 09:37:27;;;;;;;1.17;0.73;;;;;;;22.35;52.03;101439.69;5040080;28;20048;-36
2023/08/08 09:39:56;;;;;;;2.10;1.10;;;;;;;22.35;52.21;101438.81;5040840;28;20400;-36
2023/08/08 09:42:25;;;;;;;1.45;0.80;;;;;;;22.38;52.03;101444.75;5042864;28;20443;-35
2023/08/08 09:44:52;;;;;;;1.95;1.00;;;;;;;22.39;51.58;101451.84;5036654;28;20049;-36
2023/08/08 09:47:22;;;;;;;2.65;0.75;;;;;;;22.42;51.72;101437.16;5045183;28;20066;-35
2023/08/08 09:49:49;;;;;;;1.88;0.85;;;;;;;22.43;51.50;101441.53;5041271;28;20061;-36
2023/08/08 09:52:16;;;;;;;2.05;0.70;;;;;;;22.45;51.80;101447.63;5037584;28;20345;-36
2023/08/08 09:54:43;;;;;;;1.55;0.88;;;;;;;22.49;51.62;101450.84;5040002;28;20056;-36
2023/08/08 09:57:10;;;;;;;2.25;0.80;;;;;;;22.49;51.67;101443.56;5043861;28;20077;-36
2023/08/08 09:59:37;;;;;;;2.78;1.05;;;;;;;22.51;51.71;101438.84;5043984;28;20056;-36
2023/08/08 10:02:05;;;;;;;1.10;0.80;;;;;;;22.54;51.61;101445.75;5043249;28;20924;-35
2023/08/08 10:04:33;;;;;;;2.20;0.95;;;;;;;22.57;51.49;101454.38;5041144;28;20045;-36
2023/08/08 10:06:59;;;;;;;1.40;0.80;;;;;;;22.61;51.22;101453.03;5039868;28;20441;-36
2023/08/08 10:09:26;;;;;;;1.75;0.60;;;;;;;22.65;50.80;101442.72;5041725;28;20050;-36
2023/08/08 10:11:55;;;;;;;2.58;0.82;;;;;;;22.68;51.00;101445.09;5040524;28;20122;-36
2023/08/08 10:14:31;;;;;;;1.42;0.85;;;;;;;22.71;50.37;101441.19;5036942;28;20044;-36
2023/08/08 10:16:58;;;;;;;1.40;0.90;;;;;;;22.73;50.47;101441.88;5040552;28;20058;-36
2023/08/08 10:19:25;;;;;;;1.45;0.60;;;;;;;22.76;50.52;101452.38;5042205;28;20455;-36
2023/08/08 10:21:58;;;;;;;2.08;0.68;;;;;;;22.76;50.39;101449.66;5035377;28;20076;-36
2023/08/08 10:24:25;;;;;;;2.38;0.80;;;;;;;22.77;50.77;101456.75;5044095;28;20063;-36
2023/08/08 10:26:57;;;;;;;1.83;0.70;;;;;;;22.79;50.54;101446.59;5047972;28;20053;-36
2023/08/08 10:29:25;;;;;;;1.10;0.75;;;;;;;22.78;50.51;101445.75;5043910;28;20344;-36
2023/08/08 10:32:05;;;;;;;2.83;1.02;;;;;;;22.78;50.34;101444.91;5047060;28;20052;-36
2023/08/08 10:34:43;;;;;;;3.88;0.85;;;;;;;22.79;50.29;101443.88;5047365;28;20045;-36
2023/08/08 10:37:12;;;;;;;1.73;0.80;;;;;;;22.79;50.31;101441.19;5043799;28;20321;-36
2023/08/08 10:39:57;;;;;;;2.22;0.77;;;;;;;22.79;50.62;101447.44;5045077;28;20436;-36
2023/08/08 10:42:26;;;;;;;2.15;0.95;;;;;;;22.81;50.77;101455.38;5044599;28;20147;-36
2023/08/08 10:44:59;;;;;;;1.92;0.70;;;;;;;22.82;50.25;101451.66;5049453;28;20063;-36
2023/08/08 10:47:30;;;;;;;1.88;0.70;;;;;;;22.83;50.67;101447.94;5043077;28;20104;-36
2023/08/08 10:49:59;;;;;;;1.15;0.60;;;;;;;22.83;50.51;101456.03;5039115;28;20055;-36
2023/08/08 10:52:26;;;;;;;1.17;0.65;;;;;;;22.85;50.05;101452.16;5046807;28;20056;-36
2023/08/08 10:54:55;;;;;;;2.20;0.82;;;;;;;22.87;50.38;101452.88;5051398;28;20103;-36
2023/08/08 10:57:27;;;;;;;2.22;0.75;;;;;;;22.86;50.27;101453.00;5049305;28;20390;-36
2023/08/08 10:59:54;;;;;;;1.98;0.60;;;;;;;22.86;50.48;101443.03;5040361;28;20060;-36
2023/08/08 11:02:21;;;;;;;2.72;0.60;;;;;;;22.87;50.34;101446.59;5043575;28;20053;-36
2023/08/08 11:04:50;;;;;;;1.58;0.93;;;;;;;22.88;49.88;101451.00;5045643;28;20056;-36
2023/08/08 11:07:17;;;;;;;1.02;0.57;;;;;;;22.88;50.63;101445.59;5040994;28;20045;-36
2023/08/08 11:09:44;;;;;;;3.15;1.02;;;;;;;22.88;50.24;101454.53;5044257;28;20547;-36
2023/08/08 11:12:15;;;;;;;1.67;0.80;;;;;;;22.88;50.32;101451.00;5044955;28;20061;-36
2023/08/08 11:14:42;;;;;;;3.67;0.70;;;;;;;22.89;50.30;101449.97;5043231;28;20132;-36
2023/08/08 11:17:10;;;;;;;2.25;0.52;;;;;;;22.90;50.47;101446.25;5046870;28;20041;-36
2023/08/08 11:19:41;;;;;;;1.70;0.65;;;;;;;22.90;50.37;101455.22;5045759;28;20059;-36
2023/08/08 11:22:14;;;;;;;2.05;0.80;;;;;;;22.92;50.26;101449.66;5047801;28;20045;-36